createdAt,value
2019-02-25T00:00:50.028Z,29.10
2019-02-25T00:03:30.387Z,29.87
2019-02-25T00:06:11.481Z,32.73
2019-02-25T00:08:52.265Z,31.23
2019-02-25T00:11:33.208Z,35.67
2019-02-25T00:14:14.420Z,36.97
2019-02-25T00:16:55.166Z,32.87
2019-02-25T00:19:35.965Z,32.33
2019-02-25T00:22:17.125Z,31.47
2019-02-25T00:24:57.874Z,30.03
2019-02-25T00:27:38.712Z,33.57
2019-02-25T00:30:19.913Z,33.30
2019-02-25T00:33:00.753Z,32.30
2019-02-25T00:35:41.681Z,38.17
2019-02-25T00:38:22.874Z,37.27
2019-02-25T00:41:03.680Z,39.80
2019-02-25T00:43:44.708Z,33.10
2019-02-25T00:46:25.264Z,34.20
2019-02-25T00:49:05.864Z,29.27
2019-02-25T00:51:46.882Z,33.20
2019-02-25T00:54:27.084Z,32.53
2019-02-25T00:57:09.036Z,32.17
2019-02-25T00:59:49.518Z,28.20
2019-02-25T01:02:30.315Z,35.97
2019-02-25T01:05:11.303Z,31.50
2019-02-25T01:07:52.165Z,29.87
2019-02-25T01:10:32.936Z,31.57
2019-02-25T01:13:13.678Z,29.43
2019-02-25T01:15:54.338Z,30.57
2019-02-25T01:18:35.036Z,29.80
2019-02-25T01:21:15.648Z,28.40
2019-02-25T01:23:56.453Z,33.27
2019-02-25T01:26:37.340Z,30.23
2019-02-25T01:29:18.022Z,29.87
2019-02-25T01:31:58.785Z,28.27
2019-02-25T01:34:39.087Z,29.60
2019-02-25T01:37:20.227Z,31.37
2019-02-25T01:40:00.997Z,28.50
2019-02-25T01:42:42.061Z,29.27
2019-02-25T01:45:22.847Z,27.93
2019-02-25T01:48:03.482Z,28.67
2019-02-25T01:50:44.195Z,28.00
2019-02-25T01:53:24.729Z,29.13
2019-02-25T01:56:05.300Z,25.47
2019-02-25T01:58:46.205Z,24.87
2019-02-25T02:01:27.262Z,27.43
2019-02-25T02:04:08.047Z,25.57
2019-02-25T02:06:48.656Z,24.40
2019-02-25T02:09:29.691Z,28.57
2019-02-25T02:12:10.229Z,27.33
2019-02-25T02:14:51.232Z,28.13
2019-02-25T02:17:31.840Z,27.13
2019-02-25T02:20:12.449Z,29.57
2019-02-25T02:22:52.904Z,28.50
2019-02-25T02:25:33.736Z,27.87
2019-02-25T02:28:14.699Z,25.23
2019-02-25T02:30:55.035Z,28.27
2019-02-25T02:33:35.969Z,29.00
2019-02-25T02:36:16.889Z,26.13
2019-02-25T02:38:57.606Z,25.90
2019-02-25T02:41:38.334Z,27.73
2019-02-25T02:44:18.734Z,24.97
2019-02-25T02:46:59.516Z,27.47
2019-02-25T02:49:39.983Z,28.20
2019-02-25T02:52:20.500Z,29.43
2019-02-25T02:55:01.011Z,27.13
2019-02-25T02:57:41.756Z,27.40
2019-02-25T03:00:22.620Z,27.67
2019-02-25T03:03:03.371Z,29.70
2019-02-25T03:05:44.338Z,28.23
2019-02-25T03:08:24.985Z,26.17
2019-02-25T03:11:05.772Z,28.07
2019-02-25T03:13:46.439Z,30.47
2019-02-25T03:16:27.076Z,27.67
2019-02-25T03:19:07.896Z,26.67
2019-02-25T03:21:48.396Z,31.53
2019-02-25T03:24:28.891Z,29.43
2019-02-25T03:27:09.676Z,26.27
2019-02-25T03:29:50.004Z,32.03
2019-02-25T03:32:30.958Z,27.20
2019-02-25T03:35:11.657Z,27.70
2019-02-25T03:37:52.376Z,26.13
2019-02-25T03:40:33.334Z,31.53
2019-02-25T03:43:14.392Z,31.37
2019-02-25T03:45:54.865Z,27.93
2019-02-25T03:48:35.478Z,29.50
2019-02-25T03:51:16.370Z,26.60
2019-02-25T03:53:58.231Z,30.23
2019-02-25T03:56:39.059Z,30.03
2019-02-25T03:59:19.805Z,28.77
2019-02-25T04:02:00.418Z,30.73
2019-02-25T04:04:41.345Z,30.37
2019-02-25T04:07:22.408Z,28.60
2019-02-25T04:10:03.265Z,33.03
2019-02-25T04:12:43.821Z,30.73
2019-02-25T04:15:26.326Z,31.00
2019-02-25T04:18:07.333Z,33.37
2019-02-25T04:20:48.165Z,31.13
2019-02-25T04:23:29.057Z,30.53
2019-02-25T04:26:09.757Z,33.90
2019-02-25T04:28:50.601Z,31.27
2019-02-25T04:31:31.439Z,29.13
2019-02-25T04:34:11.946Z,28.37
2019-02-25T04:36:52.881Z,31.40
2019-02-25T04:39:33.652Z,33.13
2019-02-25T04:42:14.617Z,31.37
2019-02-25T04:44:55.524Z,26.30
2019-02-25T04:47:36.093Z,32.10
2019-02-25T04:50:16.934Z,32.43
2019-02-25T04:52:57.848Z,29.20
2019-02-25T04:55:38.685Z,29.03
2019-02-25T04:58:19.179Z,27.73
2019-02-25T05:00:59.729Z,31.03
2019-02-25T05:03:40.586Z,28.43
2019-02-25T05:06:19.545Z,33.87
2019-02-25T05:09:07.636Z,27.73
2019-02-25T05:11:48.420Z,29.57
2019-02-25T05:14:28.976Z,32.13
2019-02-25T05:17:10.126Z,34.93
2019-02-25T05:19:50.988Z,23.70
2019-02-25T05:22:31.545Z,27.47
2019-02-25T05:25:12.668Z,27.97
2019-02-25T05:27:53.382Z,31.87
2019-02-25T05:30:33.878Z,40.20
2019-02-25T05:33:14.717Z,32.80
2019-02-25T05:35:55.549Z,35.13
2019-02-25T05:38:36.188Z,29.47
2019-02-25T05:41:17.144Z,34.53
2019-02-25T05:43:57.979Z,29.43
2019-02-25T05:46:39.036Z,32.57
2019-02-25T05:49:19.872Z,31.13
2019-02-25T05:52:00.464Z,34.87
2019-02-25T05:54:41.476Z,28.90
2019-02-25T05:57:22.554Z,29.33
2019-02-25T06:00:03.268Z,24.57
2019-02-25T06:02:43.441Z,34.07
2019-02-25T06:05:24.403Z,29.10
2019-02-25T06:07:52.791Z,35.00
2019-02-25T06:10:40.824Z,28.63
2019-02-25T06:13:28.570Z,33.67
2019-02-25T06:16:16.328Z,31.00
2019-02-25T06:19:04.090Z,34.80
2019-02-25T06:21:52.000Z,29.57
2019-02-25T06:24:39.761Z,29.87
2019-02-25T06:27:30.791Z,31.93
2019-02-25T06:30:17.801Z,29.17
2019-02-25T06:33:05.571Z,38.07
2019-02-25T06:35:53.516Z,39.77
2019-02-25T06:38:41.320Z,38.17
2019-02-25T06:41:29.101Z,35.20
2019-02-25T06:44:16.865Z,37.17
2019-02-25T06:47:04.628Z,42.23
2019-02-25T06:49:52.401Z,37.07
2019-02-25T06:52:40.206Z,34.77
2019-02-25T06:55:27.988Z,34.90
2019-02-25T06:58:15.762Z,33.53
2019-02-25T07:00:56.238Z,40.07
2019-02-25T07:03:37.087Z,30.80
2019-02-25T07:06:19.672Z,36.30
2019-02-25T07:09:02.213Z,35.10
2019-02-25T07:12:02.435Z,34.43
2019-02-25T07:14:44.319Z,39.00
2019-02-25T07:17:29.856Z,37.67
2019-02-25T07:20:14.468Z,36.13
2019-02-25T07:29:03.632Z,34.23
2019-02-25T07:31:48.244Z,35.60
2019-02-25T07:37:55.250Z,36.23
2019-02-25T07:40:40.840Z,41.27
2019-02-25T07:43:26.192Z,33.70
2019-02-25T07:49:33.309Z,32.80
2019-02-25T07:52:32.950Z,30.37
2019-02-25T07:55:14.948Z,30.00
2019-02-25T07:57:57.926Z,36.47
2019-02-25T08:00:40.614Z,40.67
2019-02-25T08:03:26.209Z,31.13
2019-02-25T08:06:08.598Z,29.43
2019-02-25T08:09:08.665Z,31.80
2019-02-25T08:11:51.281Z,30.87
2019-02-25T08:14:51.578Z,33.93
2019-02-25T08:17:33.848Z,28.87
2019-02-25T08:23:12.086Z,31.37
2019-02-25T08:29:19.656Z,27.77
2019-02-25T08:32:19.220Z,28.23
2019-02-25T08:35:01.241Z,31.33
2019-02-25T08:37:46.716Z,28.07
2019-02-25T08:40:32.155Z,33.80
2019-02-25T08:43:32.824Z,31.23
2019-02-25T08:46:14.785Z,27.60
2019-02-25T08:48:56.696Z,31.40
2019-02-25T08:51:38.000Z,28.77
2019-02-25T08:54:19.064Z,32.00
2019-02-25T08:56:59.530Z,32.93
2019-02-25T08:59:40.628Z,31.03
2019-02-25T09:02:21.645Z,27.57
2019-02-25T09:05:02.011Z,31.77
2019-02-25T09:07:30.472Z,29.83
2019-02-25T09:10:18.347Z,30.47
2019-02-25T09:13:06.128Z,36.47
2019-02-25T09:15:53.898Z,33.30
2019-02-25T09:18:41.672Z,29.83
2019-02-25T09:21:31.878Z,34.23
2019-02-25T09:24:18.935Z,34.77
2019-02-25T09:27:06.693Z,36.90
2019-02-25T09:29:54.466Z,31.77
2019-02-25T09:32:42.229Z,30.47
2019-02-25T09:35:29.993Z,31.07
2019-02-25T09:38:11.104Z,31.90
2019-02-25T09:40:39.534Z,36.67
2019-02-25T09:43:27.295Z,32.83
2019-02-25T09:46:15.042Z,39.30
2019-02-25T09:49:02.895Z,35.83
2019-02-25T09:51:50.640Z,31.53
2019-02-25T09:54:38.415Z,45.43
2019-02-25T09:57:26.157Z,29.27
2019-02-25T10:00:07.314Z,32.67
2019-02-25T10:02:48.208Z,38.13
2019-02-25T10:05:28.756Z,35.23
2019-02-25T10:08:09.745Z,33.47
2019-02-25T10:10:50.677Z,32.13
2019-02-25T10:13:31.205Z,36.17
2019-02-25T10:16:12.257Z,33.57
2019-02-25T10:18:52.830Z,34.20
2019-02-25T10:21:33.593Z,38.17
2019-02-25T10:24:14.233Z,37.30
2019-02-25T10:26:54.821Z,33.77
2019-02-25T10:29:35.671Z,35.23
2019-02-25T10:32:16.454Z,33.93
2019-02-25T10:34:57.053Z,31.63
2019-02-25T10:37:38.773Z,38.50
2019-02-25T10:40:23.990Z,30.73
2019-02-25T10:43:02.500Z,32.57
2019-02-25T10:45:45.389Z,33.97
2019-02-25T10:48:26.489Z,33.63
2019-02-25T10:51:09.189Z,31.63
2019-02-25T10:53:51.081Z,32.43
2019-02-25T10:56:31.186Z,26.57
2019-02-25T10:59:11.695Z,27.50
2019-02-25T11:01:52.777Z,31.57
2019-02-25T11:04:33.677Z,29.97
2019-02-25T11:07:14.506Z,32.27
2019-02-25T11:09:59.632Z,31.87
2019-02-25T11:12:40.596Z,33.63
2019-02-25T11:15:21.545Z,31.73
2019-02-25T11:18:02.327Z,40.60
2019-02-25T11:20:42.975Z,33.83
2019-02-25T11:23:23.205Z,30.90
2019-02-25T11:26:04.029Z,32.17
2019-02-25T11:28:44.766Z,35.53
2019-02-25T11:31:27.402Z,37.47
2019-02-25T11:34:08.165Z,30.70
2019-02-25T11:36:50.476Z,29.10
2019-02-25T11:39:32.530Z,31.57
2019-02-25T11:42:13.582Z,28.60
2019-02-25T11:44:57.097Z,14.53
2019-02-25T11:47:38.164Z,36.73
2019-02-25T11:50:18.948Z,31.13
2019-02-25T11:52:59.723Z,33.07
2019-02-25T11:55:40.454Z,29.33
2019-02-25T11:58:20.913Z,32.47
2019-02-25T12:01:02.056Z,31.07
2019-02-25T12:03:43.084Z,31.77
2019-02-25T12:06:24.164Z,18.93
2019-02-25T12:09:04.618Z,15.50
2019-02-25T12:11:45.225Z,28.03
2019-02-25T12:14:25.938Z,27.33
2019-02-25T12:16:54.372Z,29.37
2019-02-25T12:19:42.128Z,28.87
2019-02-25T12:22:29.883Z,30.03
2019-02-25T12:25:18.226Z,25.90
2019-02-25T12:28:05.679Z,27.40
2019-02-25T12:30:53.600Z,28.07
2019-02-25T12:33:41.373Z,25.13
2019-02-25T12:36:22.298Z,26.83
2019-02-25T12:39:03.199Z,23.67
2019-02-25T12:41:44.341Z,22.83
2019-02-25T12:44:25.254Z,23.63
2019-02-25T12:47:06.006Z,25.87
2019-02-25T12:49:46.590Z,34.33
2019-02-25T12:52:15.018Z,24.90
2019-02-25T12:55:03.086Z,22.70
2019-02-25T12:57:51.126Z,26.00
2019-02-25T13:00:38.864Z,20.53
2019-02-25T13:03:26.765Z,25.60
2019-02-25T13:06:14.686Z,26.27
2019-02-25T13:11:57.713Z,33.33
2019-02-25T13:14:39.485Z,21.53
2019-02-25T13:17:20.557Z,22.50
2019-02-25T13:20:00.829Z,23.77
2019-02-25T13:22:41.414Z,21.47
2019-02-25T13:25:22.044Z,23.37
2019-02-25T13:28:04.225Z,23.50
2019-02-25T13:30:45.859Z,24.13
2019-02-25T13:33:26.435Z,21.00
2019-02-25T13:36:07.701Z,22.00
2019-02-25T13:38:48.664Z,21.33
2019-02-25T13:41:29.037Z,9.53
2019-02-25T13:44:09.902Z,20.87
2019-02-25T13:46:50.466Z,21.17
2019-02-25T13:49:31.177Z,18.53
2019-02-25T13:52:12.145Z,19.40
2019-02-25T13:54:52.938Z,19.80
2019-02-25T13:57:33.825Z,21.03
2019-02-25T14:00:14.635Z,16.73
2019-02-25T14:02:55.606Z,19.07
2019-02-25T14:05:36.615Z,8.50
2019-02-25T14:08:17.129Z,15.03
2019-02-25T14:10:58.309Z,14.20
2019-02-25T14:13:39.362Z,11.33
2019-02-25T14:16:20.366Z,17.00
2019-02-25T14:19:01.040Z,18.03
2019-02-25T14:21:41.704Z,17.67
2019-02-25T14:24:22.133Z,15.23
2019-02-25T14:27:03.101Z,15.97
2019-02-25T14:29:44.624Z,13.93
2019-02-25T14:32:27.862Z,17.80
2019-02-25T14:34:56.421Z,18.23
2019-02-25T14:37:37.626Z,16.77
2019-02-25T14:40:19.176Z,8.00
2019-02-25T14:43:04.003Z,22.10
2019-02-25T14:45:44.431Z,20.10
2019-02-25T14:48:27.511Z,17.40
2019-02-25T14:51:08.821Z,15.83
2019-02-25T14:53:51.997Z,7.70
2019-02-25T14:56:31.993Z,14.70
2019-02-25T14:59:15.121Z,17.83
2019-02-25T15:01:56.965Z,10.27
2019-02-25T15:04:39.710Z,18.03
2019-02-25T15:07:21.396Z,23.17
2019-02-25T15:10:02.888Z,16.37
2019-02-25T15:12:44.399Z,6.13
2019-02-25T15:15:25.400Z,17.53
2019-02-25T15:18:05.840Z,13.53
2019-02-25T15:20:46.497Z,18.50
2019-02-25T15:23:29.652Z,18.10
2019-02-25T15:26:10.636Z,19.50
2019-02-25T15:28:53.685Z,19.87
2019-02-25T15:31:33.740Z,8.43
2019-02-25T15:34:15.041Z,18.37
2019-02-25T15:36:56.451Z,17.20
2019-02-25T15:39:41.732Z,16.57
2019-02-25T15:42:23.779Z,19.07
2019-02-25T15:45:04.453Z,7.27
2019-02-25T15:47:46.915Z,8.97
2019-02-25T15:50:27.225Z,5.50
2019-02-25T15:53:09.453Z,18.93
2019-02-25T15:55:50.439Z,16.80
2019-02-25T15:58:31.061Z,18.23
2019-02-25T16:01:11.853Z,19.00
2019-02-25T16:03:56.480Z,22.10
2019-02-25T16:06:37.290Z,17.97
2019-02-25T16:09:21.250Z,17.80
2019-02-25T16:12:03.054Z,21.67
2019-02-25T16:14:44.325Z,20.60
2019-02-25T16:17:24.408Z,18.53
2019-02-25T16:20:33.050Z,19.67
2019-02-25T16:23:20.885Z,19.37
2019-02-25T16:26:09.401Z,19.53
2019-02-25T16:28:59.584Z,22.50
2019-02-25T16:31:49.007Z,22.00
2019-02-25T16:34:38.264Z,21.13
2019-02-25T16:37:27.319Z,26.23
2019-02-25T16:40:36.210Z,23.50
2019-02-25T16:43:24.932Z,25.60
2019-02-25T16:46:15.451Z,23.70
2019-02-25T16:49:02.234Z,23.23
2019-02-25T16:51:51.068Z,22.60
2019-02-25T16:54:39.552Z,20.93
2019-02-25T16:57:27.421Z,22.53
2019-02-25T17:00:37.250Z,26.80
2019-02-25T17:03:18.148Z,23.63
2019-02-25T17:05:59.252Z,23.43
2019-02-25T17:08:39.889Z,22.73
2019-02-25T17:11:21.877Z,28.47
2019-02-25T17:14:03.783Z,26.37
2019-02-25T17:16:45.180Z,27.47
2019-02-25T17:19:25.672Z,24.67
2019-02-25T17:22:06.781Z,28.60
2019-02-25T17:24:47.745Z,28.60
2019-02-25T17:27:28.536Z,27.07
2019-02-25T17:30:09.357Z,24.73
2019-02-25T17:32:49.881Z,25.90
2019-02-25T17:35:30.806Z,27.87
2019-02-25T17:38:11.337Z,27.07
2019-02-25T17:40:52.008Z,23.97
2019-02-25T17:43:34.258Z,26.77
2019-02-25T17:46:15.885Z,24.27
2019-02-25T17:48:56.725Z,24.50
2019-02-25T17:51:37.572Z,24.30
2019-02-25T17:54:18.458Z,27.97
2019-02-25T17:56:59.227Z,27.77
2019-02-25T17:59:40.121Z,26.97
2019-02-25T18:02:20.765Z,25.43
2019-02-25T18:05:01.417Z,28.57
2019-02-25T18:07:44.255Z,26.70
2019-02-25T18:10:23.485Z,27.03
2019-02-25T18:13:12.121Z,26.70
2019-02-25T18:16:01.617Z,28.87
2019-02-25T18:18:50.771Z,27.77
2019-02-25T18:21:38.881Z,26.43
2019-02-25T18:24:27.504Z,30.70
2019-02-25T18:30:31.732Z,5.37
2019-02-25T18:33:23.055Z,15.40
2019-02-25T18:36:11.276Z,33.97
2019-02-25T18:39:00.191Z,28.03
2019-02-25T18:41:48.888Z,26.97
2019-02-25T18:44:37.767Z,15.57
2019-02-25T18:47:27.263Z,14.67
2019-02-25T18:50:35.865Z,19.90
2019-02-25T18:53:25.053Z,30.63
2019-02-25T18:56:14.629Z,33.10
2019-02-25T18:59:08.175Z,32.00
2019-02-25T19:01:53.650Z,28.33
2019-02-25T19:04:43.481Z,28.87
2019-02-25T19:07:25.611Z,30.07
2019-02-25T19:10:06.576Z,29.10
2019-02-25T19:12:47.979Z,31.20
2019-02-25T19:15:29.192Z,29.23
2019-02-25T19:18:11.080Z,30.10
2019-02-25T19:20:52.943Z,30.97
2019-02-25T19:23:35.376Z,31.67
2019-02-25T19:26:19.561Z,28.17
2019-02-25T19:29:00.016Z,29.33
2019-02-25T19:31:42.577Z,31.87
2019-02-25T19:34:23.501Z,29.53
2019-02-25T19:37:05.181Z,33.40
2019-02-25T19:39:48.829Z,31.47
2019-02-25T19:42:31.167Z,33.17
2019-02-25T19:45:11.320Z,35.17
2019-02-25T19:47:52.228Z,31.67
2019-02-25T19:50:34.771Z,39.00
2019-02-25T19:53:19.458Z,42.90
2019-02-25T19:55:57.458Z,31.30
2019-02-25T19:58:40.945Z,30.47
2019-02-25T20:01:21.267Z,31.17
2019-02-25T20:04:04.719Z,31.33
2019-02-25T20:06:44.917Z,33.23
2019-02-25T20:09:27.169Z,33.37
2019-02-25T20:12:07.772Z,38.43
2019-02-25T20:14:48.360Z,34.57
2019-02-25T20:17:30.996Z,34.10
2019-02-25T20:20:12.840Z,33.90
2019-02-25T20:22:54.133Z,33.73
2019-02-25T20:25:35.176Z,30.33
2019-02-25T20:28:17.929Z,39.83
2019-02-25T20:30:58.806Z,31.80
2019-02-25T20:33:39.564Z,31.40
2019-02-25T20:36:22.002Z,32.73
2019-02-25T20:39:03.795Z,31.83
2019-02-25T20:41:45.919Z,33.17
2019-02-25T20:44:28.433Z,34.67
2019-02-25T20:47:10.161Z,32.07
2019-02-25T20:49:53.729Z,34.60
2019-02-25T20:52:34.057Z,33.70
2019-02-25T20:55:16.253Z,40.17
2019-02-25T20:57:56.998Z,33.73
2019-02-25T21:00:41.403Z,32.00
2019-02-25T21:03:21.353Z,17.80
2019-02-25T21:06:03.019Z,32.47
2019-02-25T21:08:44.504Z,32.47
2019-02-25T21:11:25.710Z,31.43
2019-02-25T21:14:06.400Z,33.27
2019-02-25T21:16:47.454Z,36.27
2019-02-25T21:19:27.899Z,33.50
2019-02-25T21:22:08.891Z,34.63
2019-02-25T21:24:49.515Z,33.60
2019-02-25T21:27:32.582Z,35.60
2019-02-25T21:30:13.182Z,32.77
2019-02-25T21:32:54.270Z,34.30
2019-02-25T21:35:38.014Z,33.83
2019-02-25T21:38:19.980Z,33.77
2019-02-25T21:41:01.940Z,34.53
2019-02-25T21:43:43.586Z,35.67
2019-02-25T21:46:26.462Z,36.10
2019-02-25T21:49:08.401Z,34.80
2019-02-25T21:51:48.772Z,35.90
2019-02-25T21:54:29.494Z,34.97
2019-02-25T21:57:10.253Z,35.90
2019-02-25T21:59:51.092Z,35.97
2019-02-25T22:02:32.137Z,36.27
2019-02-25T22:05:00.577Z,36.60
2019-02-25T22:07:52.353Z,34.87
2019-02-25T22:10:39.869Z,35.80
2019-02-25T22:13:27.291Z,37.33
2019-02-25T22:16:15.062Z,36.07
2019-02-25T22:19:02.836Z,36.37
2019-02-25T22:21:53.598Z,36.70
2019-02-25T22:24:40.655Z,37.77
2019-02-25T22:27:30.110Z,46.67
2019-02-25T22:30:18.033Z,38.40
2019-02-25T22:33:07.858Z,45.73
2019-02-25T22:35:55.305Z,38.23
2019-02-25T22:38:43.064Z,42.23
2019-02-25T22:41:30.858Z,39.30
2019-02-25T22:44:18.679Z,50.47
2019-02-25T22:47:09.213Z,42.37
2019-02-25T22:49:55.956Z,45.27
2019-02-25T23:07:38.982Z,46.90
2019-02-25T23:13:08.390Z,41.00
2019-02-25T23:18:36.473Z,35.20
2019-02-25T23:24:16.914Z,35.00
2019-02-25T23:29:41.485Z,35.60
2019-02-25T23:35:11.449Z,35.93
2019-02-25T23:37:51.933Z,36.40
2019-02-25T23:40:35.996Z,38.57
2019-02-25T23:43:18.877Z,36.77
2019-02-25T23:46:00.564Z,35.13
2019-02-25T23:54:25.382Z,42.17
2019-02-25T23:57:14.714Z,38.10
